BAW34T EGPK-EGPK
Flight info
| Callsign | BAW34T |
|---|---|
| Flight time | N/A |
| Altitude | 7000 |
| Route | 5535N00448W DCT 5531N00453W 5520N00422W 5524N00417W |
| Aircraft | A35K/H-SDE2E3GHIJ3J4J5LM1ORWXY/LB1D1 |
Departure
| Time | 2026-04-26 20:00 |
|---|---|
| Airport | Glasgow Prestwick Airport (EGPK) |
Arrival
| Time | N/A |
|---|---|
| Airport | Glasgow Prestwick Airport (EGPK) |
| Time | Latitude | Longitude | Altitude | Speed | Heading |
|---|---|---|---|---|---|
| 2026-04-26 19:52 | 55.50664 | -4.59556 | 39 ft | 0 kts | 301° |
| 2026-04-26 19:56 | 55.50657 | -4.59536 | 57 ft | 4 kts | 310° |
| 2026-04-26 19:56 | 55.50634 | -4.59513 | 60 ft | 4 kts | 12° |
| 2026-04-26 19:56 | 55.50615 | -4.59541 | 57 ft | 0 kts | 64° |
| 2026-04-26 19:56 | 55.50622 | -4.59515 | 57 ft | 7 kts | 63° |
| 2026-04-26 19:57 | 55.50688 | -4.59276 | 63 ft | 2 kts | 71° |
| 2026-04-26 19:57 | 55.50702 | -4.59164 | 64 ft | 35 kts | 84° |
| 2026-04-26 19:57 | 55.50620 | -4.58731 | 64 ft | 36 kts | 122° |
| 2026-04-26 19:57 | 55.50496 | -4.58378 | 69 ft | 32 kts | 121° |
| 2026-04-26 19:58 | 55.50383 | -4.58048 | 67 ft | 30 kts | 121° |
| 2026-04-26 19:58 | 55.50270 | -4.57746 | 66 ft | 28 kts | 122° |
| 2026-04-26 19:58 | 55.50240 | -4.57621 | 69 ft | 2 kts | 106° |
| 2026-04-26 19:58 | 55.50251 | -4.57596 | 65 ft | 4 kts | 27° |
| 2026-04-26 19:59 | 55.50281 | -4.57590 | 69 ft | 4 kts | 351° |
| 2026-04-26 19:59 | 55.50304 | -4.57623 | 65 ft | 4 kts | 302° |
| 2026-04-26 19:59 | 55.50311 | -4.57645 | 68 ft | 3 kts | 302° |
| 2026-04-26 19:59 | 55.50398 | -4.57895 | 69 ft | 72 kts | 301° |
| 2026-04-26 20:00 | 55.50876 | -4.59261 | 86 ft | 187 kts | 301° |
| 2026-04-26 20:00 | 55.51650 | -4.61594 | 689 ft | 223 kts | 298° |
| 2026-04-26 20:00 | 55.52401 | -4.64034 | 1959 ft | 238 kts | 298° |
| 2026-04-26 20:00 | 55.53228 | -4.66719 | 3248 ft | 258 kts | 298° |
| 2026-04-26 20:01 | 55.53884 | -4.69726 | 4485 ft | 271 kts | 269° |
| 2026-04-26 20:01 | 55.53173 | -4.72644 | 6022 ft | 282 kts | 237° |
| 2026-04-26 20:01 | 55.51469 | -4.74819 | 6639 ft | 326 kts | 200° |
| 2026-04-26 20:01 | 55.49142 | -4.74973 | 7842 ft | 350 kts | 169° |
| 2026-04-26 20:02 | 55.46926 | -4.72976 | 9081 ft | 374 kts | 145° |
| 2026-04-26 20:02 | 55.45375 | -4.69292 | 8731 ft | 374 kts | 117° |
| 2026-04-26 20:02 | 55.44262 | -4.65324 | 8694 ft | 349 kts | 117° |
| 2026-04-26 20:02 | 55.43569 | -4.62844 | 8652 ft | 334 kts | 117° |
| 2026-04-26 20:03 | 55.42143 | -4.58248 | 8574 ft | 306 kts | 126° |
| 2026-04-26 20:03 | 55.40968 | -4.55251 | 8533 ft | 289 kts | 126° |
| 2026-04-26 20:03 | 55.39827 | -4.52443 | 8457 ft | 274 kts | 127° |
| 2026-04-26 20:03 | 55.38735 | -4.49777 | 8376 ft | 261 kts | 128° |
| 2026-04-26 20:04 | 55.37703 | -4.47282 | 8307 ft | 250 kts | 128° |
| 2026-04-26 20:04 | 55.36697 | -4.44860 | 8221 ft | 239 kts | 128° |
| 2026-04-26 20:04 | 55.36043 | -4.42280 | 7989 ft | 235 kts | 91° |
| 2026-04-26 20:04 | 55.36510 | -4.39576 | 7674 ft | 231 kts | 56° |
| 2026-04-26 20:05 | 55.37606 | -4.37549 | 7489 ft | 227 kts | 32° |
| 2026-04-26 20:05 | 55.38961 | -4.36234 | 7303 ft | 219 kts | 22° |
| 2026-04-26 20:05 | 55.40374 | -4.35351 | 7122 ft | 212 kts | 13° |
| 2026-04-26 20:05 | 55.41786 | -4.35138 | 6907 ft | 200 kts | 347° |
| 2026-04-26 20:06 | 55.43022 | -4.36039 | 6646 ft | 191 kts | 314° |
| 2026-04-26 20:06 | 55.43830 | -4.37971 | 6442 ft | 224 kts | 300° |
| 2026-04-26 20:06 | 55.44722 | -4.40671 | 5427 ft | 273 kts | 299° |
| 2026-04-26 20:06 | 55.45661 | -4.43691 | 4095 ft | 285 kts | 298° |
| 2026-04-26 20:07 | 55.46577 | -4.46706 | 2682 ft | 309 kts | 297° |
| 2026-04-26 20:07 | 55.47638 | -4.49992 | 1658 ft | 300 kts | 301° |
| 2026-04-26 20:07 | 55.48499 | -4.52497 | 1032 ft | 285 kts | 301° |
| 2026-04-26 20:07 | 55.49502 | -4.55373 | 467 ft | 265 kts | 301° |
| 2026-04-26 20:08 | 55.50445 | -4.58055 | 129 ft | 242 kts | 299° |
| 2026-04-26 20:08 | 55.51203 | -4.60346 | 586 ft | 193 kts | 299° |
| 2026-04-26 20:08 | 55.51849 | -4.62123 | 761 ft | 151 kts | 301° |
| 2026-04-26 20:08 | 55.52335 | -4.63553 | 762 ft | 124 kts | 298° |
| 2026-04-26 20:09 | 55.52814 | -4.65073 | 942 ft | 170 kts | 298° |
| 2026-04-26 20:09 | 55.53372 | -4.66949 | 1247 ft | 186 kts | 297° |
| 2026-04-26 20:09 | 55.53984 | -4.69100 | 1522 ft | 209 kts | 296° |
| 2026-04-26 20:09 | 55.53772 | -4.71553 | 1940 ft | 226 kts | 216° |
| 2026-04-26 20:10 | 55.52317 | -4.71346 | 2964 ft | 228 kts | 144° |
| 2026-04-26 20:10 | 55.51384 | -4.69094 | 3852 ft | 226 kts | 120° |
| 2026-04-26 20:10 | 55.50610 | -4.66703 | 4767 ft | 223 kts | 122° |
| 2026-04-26 20:10 | 55.49759 | -4.64409 | 5688 ft | 222 kts | 127° |
| 2026-04-26 20:11 | 55.48795 | -4.62284 | 6601 ft | 222 kts | 134° |
| 2026-04-26 20:11 | 55.47690 | -4.60391 | 7483 ft | 221 kts | 142° |
| 2026-04-26 20:11 | 55.46506 | -4.58676 | 8352 ft | 223 kts | 134° |